createdAt,value
2022-11-05T06:14:14.203Z,98155.59
2022-11-05T06:16:42.087Z,98159.75
2022-11-05T06:19:09.841Z,98152.63
2022-11-05T06:21:37.615Z,98155.66
2022-11-05T06:24:05.500Z,98149.72
2022-11-05T06:26:33.156Z,98155.41
2022-11-05T06:29:00.807Z,98167.00
2022-11-05T06:31:28.453Z,98170.78
2022-11-05T06:33:56.062Z,98172.81
2022-11-05T06:36:23.702Z,98172.91
2022-11-05T06:38:51.307Z,98179.16
2022-11-05T06:41:18.922Z,98190.41
2022-11-05T06:43:46.607Z,98185.97
2022-11-05T06:46:14.399Z,98187.19
2022-11-05T06:48:42.000Z,98187.97
2022-11-05T06:51:09.911Z,98195.19
2022-11-05T06:53:37.589Z,98192.84
2022-11-05T06:56:07.288Z,98207.31
2022-11-05T06:58:35.713Z,98215.31
2022-11-05T07:01:09.207Z,98214.31
2022-11-05T07:03:38.670Z,98209.66
2022-11-05T07:06:07.985Z,98219.13
2022-11-05T07:08:38.051Z,98220.00
2022-11-05T07:11:06.129Z,98227.13
2022-11-05T07:13:33.862Z,98235.25
2022-11-05T07:16:01.479Z,98231.00
2022-11-05T07:18:29.294Z,98221.66
2022-11-05T07:20:57.066Z,98234.88
2022-11-05T07:23:24.849Z,98230.66
2022-11-05T07:25:52.571Z,98234.22
2022-11-05T07:28:20.299Z,98242.88
2022-11-05T07:30:48.470Z,98246.09
2022-11-05T07:33:16.114Z,98243.72
2022-11-05T07:35:43.776Z,98257.19
2022-11-05T07:38:11.887Z,98264.19
2022-11-05T07:40:39.506Z,98261.81
2022-11-05T07:43:07.471Z,98265.34
2022-11-05T07:45:35.165Z,98277.69
2022-11-05T07:48:04.563Z,98276.50
2022-11-05T07:50:35.669Z,98292.06
2022-11-05T07:53:14.145Z,98297.44
2022-11-05T07:55:43.888Z,98304.72
2022-11-05T07:58:11.708Z,98302.03
2022-11-05T08:00:39.718Z,98318.06
2022-11-05T08:03:13.043Z,98321.91
2022-11-05T08:05:46.044Z,98326.16
2022-11-05T08:08:17.211Z,98327.84
2022-11-05T08:10:45.479Z,98328.28
2022-11-05T08:13:14.781Z,98331.22
2022-11-05T08:15:43.716Z,98334.63
2022-11-05T08:18:17.761Z,98329.09
2022-11-05T08:20:47.016Z,98337.50
2022-11-05T08:23:15.426Z,98358.47
2022-11-05T08:25:43.265Z,98369.47
2022-11-05T08:28:13.650Z,98369.47
2022-11-05T08:30:41.689Z,98379.84
2022-11-05T08:33:14.606Z,98381.75
2022-11-05T08:35:42.989Z,98390.03
2022-11-05T08:38:13.925Z,98402.78
2022-11-05T08:40:43.611Z,98402.22
2022-11-05T08:43:14.688Z,98403.78
2022-11-05T08:45:42.881Z,98393.59
2022-11-05T08:48:15.151Z,98403.38
2022-11-05T08:50:46.020Z,98405.00
2022-11-05T08:53:14.869Z,98416.38
2022-11-05T08:55:44.100Z,98414.78
2022-11-05T08:58:15.394Z,98400.25
2022-11-05T09:00:46.140Z,98413.81
2022-11-05T09:03:14.803Z,98413.81
2022-11-05T09:05:43.480Z,98421.06
2022-11-05T09:08:17.810Z,98423.84
2022-11-05T09:10:47.774Z,98418.94
2022-11-05T09:13:19.233Z,98417.53
2022-11-05T09:15:51.698Z,98427.34
2022-11-05T09:18:20.611Z,98434.03
2022-11-05T09:20:49.419Z,98438.31
2022-11-05T09:23:18.573Z,98436.78
2022-11-05T09:25:46.679Z,98443.44
2022-11-05T09:28:21.523Z,98439.31
2022-11-05T09:30:51.941Z,98454.03
2022-11-05T09:33:24.104Z,98452.84
2022-11-05T09:35:53.651Z,98447.38
2022-11-05T09:38:21.427Z,98443.06
2022-11-05T09:41:00.970Z,98451.09
2022-11-05T09:43:34.682Z,98457.56
2022-11-05T09:46:16.614Z,98459.91
2022-11-05T09:48:49.807Z,98466.38
2022-11-05T09:51:23.676Z,98460.28
2022-11-05T09:53:53.641Z,98451.09
2022-11-05T09:56:28.479Z,98451.06
2022-11-05T09:59:12.573Z,98450.28
2022-11-05T10:01:43.381Z,98455.03
2022-11-05T10:04:22.430Z,98455.97
2022-11-05T10:06:56.851Z,98458.53
2022-11-05T10:09:33.427Z,98457.19
2022-11-05T10:12:24.420Z,98461.09
2022-11-05T10:15:14.328Z,98462.28
2022-11-05T10:17:51.058Z,98457.56
2022-11-05T10:20:37.616Z,98462.25
2022-11-05T10:23:19.361Z,98464.81
2022-11-05T10:25:53.525Z,98458.53
2022-11-05T10:28:25.688Z,98449.72
2022-11-05T10:31:01.376Z,98460.31
2022-11-05T10:33:59.917Z,98458.75
2022-11-05T10:36:38.028Z,98445.44
2022-11-05T10:39:19.172Z,98467.56
2022-11-05T10:42:04.989Z,98471.28
2022-11-05T10:44:58.533Z,98477.19
2022-11-05T10:47:48.220Z,98483.81
2022-11-05T10:50:25.943Z,98487.38
2022-11-05T10:53:15.140Z,98494.41
2022-11-05T10:55:48.353Z,98509.69
2022-11-05T10:58:15.924Z,98506.72
2022-11-05T11:01:10.957Z,98498.31
2022-11-05T11:03:51.282Z,98491.44
2022-11-05T11:06:26.609Z,98483.81
2022-11-05T11:08:58.360Z,98474.78
2022-11-05T11:11:45.270Z,98480.66
2022-11-05T11:14:12.915Z,98479.50
2022-11-05T11:16:44.230Z,98485.19
2022-11-05T11:19:23.738Z,98484.41
2022-11-05T11:22:03.188Z,98492.66
2022-11-05T11:24:38.716Z,98496.00
2022-11-05T11:27:24.126Z,98486.19
2022-11-05T11:30:02.634Z,98478.72
2022-11-05T11:32:39.984Z,98479.50
2022-11-05T11:35:24.113Z,98485.59
2022-11-05T11:37:58.070Z,98483.41
2022-11-05T11:40:35.048Z,98481.66
2022-11-05T11:43:27.015Z,98483.44
2022-11-05T11:46:03.757Z,98484.22
2022-11-05T11:48:36.432Z,98483.84
2022-11-05T11:51:32.537Z,98483.06
2022-11-05T11:54:02.033Z,98480.91
2022-11-05T11:56:31.468Z,98482.84
2022-11-05T11:59:18.538Z,98491.28
2022-11-05T12:03:01.857Z,98484.78
2022-11-05T12:05:38.647Z,98488.13
2022-11-05T12:09:07.162Z,98492.22
2022-11-05T12:11:56.094Z,98496.75
2022-11-05T12:14:59.647Z,98488.53
2022-11-05T12:17:52.398Z,98495.19
2022-11-05T12:20:48.488Z,98497.50
2022-11-05T12:24:06.680Z,98502.25
2022-11-05T12:27:14.713Z,98501.06
2022-11-05T12:30:22.155Z,98498.91
2022-11-05T12:33:35.332Z,98494.00
2022-11-05T12:36:09.209Z,98502.25
2022-11-05T12:39:14.720Z,98491.66
2022-11-05T12:42:26.851Z,98495.97
2022-11-05T12:44:54.485Z,98503.81
2022-11-05T12:47:32.243Z,98501.47
2022-11-05T12:50:26.907Z,98506.56
2022-11-05T12:53:12.673Z,98507.34
2022-11-05T12:55:48.837Z,98499.50
2022-11-05T12:58:26.181Z,98493.63
2022-11-05T13:01:02.690Z,98489.31
2022-11-05T13:03:53.372Z,98483.84
2022-11-05T13:06:45.229Z,98486.38
2022-11-05T13:09:50.772Z,98490.88
2022-11-05T13:12:23.101Z,98501.06
2022-11-05T13:15:02.261Z,98497.94
2022-11-05T13:17:58.480Z,98498.91
2022-11-05T13:20:42.414Z,98505.59
2022-11-05T13:23:40.098Z,98503.41
2022-11-05T13:26:42.291Z,98506.53
2022-11-05T13:29:20.294Z,98515.94
2022-11-05T13:32:01.527Z,98520.28
2022-11-05T13:34:33.445Z,98520.66
2022-11-05T13:37:27.833Z,98526.13
2022-11-05T13:40:09.636Z,98532.41
2022-11-05T13:43:17.923Z,98538.69
2022-11-05T13:46:39.190Z,98546.72
2022-11-05T13:49:37.421Z,98550.22
2022-11-05T13:52:59.999Z,98561.59
2022-11-05T13:56:23.191Z,98564.91
2022-11-05T13:59:18.492Z,98558.25
2022-11-05T14:01:58.239Z,98555.53
2022-11-05T14:04:47.099Z,98564.13
2022-11-05T14:07:33.218Z,98551.59
2022-11-05T14:10:35.290Z,98562.94
2022-11-05T14:13:34.240Z,98576.28
2022-11-05T14:16:22.941Z,98571.56
2022-11-05T14:19:18.262Z,98578.41
2022-11-05T14:21:53.099Z,98574.72
2022-11-05T14:24:24.058Z,98572.56
2022-11-05T14:27:01.040Z,98578.63
2022-11-05T14:29:50.008Z,98578.63
2022-11-05T14:32:17.700Z,98580.19
2022-11-05T14:35:02.348Z,98573.72
2022-11-05T14:37:42.154Z,98579.41
2022-11-05T14:40:40.293Z,98581.34
2022-11-05T14:43:26.838Z,98579.97
2022-11-05T14:46:03.315Z,98583.88
2022-11-05T14:48:41.357Z,98580.91
2022-11-05T14:51:46.021Z,98581.69
2022-11-05T14:54:33.388Z,98589.56
2022-11-05T14:57:03.301Z,98582.50
2022-11-05T14:59:50.993Z,98589.94
2022-11-05T15:02:25.102Z,98588.19
2022-11-05T15:05:40.288Z,98581.13
2022-11-05T15:08:36.729Z,98582.50
2022-11-05T15:11:33.014Z,98581.69
2022-11-05T15:14:16.773Z,98582.50
2022-11-05T15:16:53.267Z,98577.19
2022-11-05T15:19:31.482Z,98583.63
2022-11-05T15:22:33.464Z,98588.16
2022-11-05T15:25:02.057Z,98590.06
2022-11-05T15:27:50.665Z,98584.41
2022-11-05T15:30:22.212Z,98595.78
2022-11-05T15:32:51.139Z,98581.28
2022-11-05T15:35:27.729Z,98583.22
2022-11-05T15:38:02.100Z,98591.84
2022-11-05T15:40:33.088Z,98602.78
2022-11-05T15:43:17.795Z,98583.41
2022-11-05T15:46:31.349Z,98603.41
2022-11-05T15:49:06.634Z,98600.47
2022-11-05T15:51:36.253Z,98596.94
2022-11-05T15:54:28.988Z,98596.53
2022-11-05T15:57:00.405Z,98604.34
2022-11-05T15:59:30.790Z,98606.47
2022-11-05T16:02:34.967Z,98605.34
2022-11-05T16:05:12.305Z,98600.63
2022-11-05T16:07:45.207Z,98611.22
2022-11-05T16:10:30.800Z,98614.53
2022-11-05T16:13:37.966Z,98621.38
2022-11-05T16:16:24.521Z,98627.06
2022-11-05T16:18:52.865Z,98635.09
2022-11-05T16:21:23.324Z,98631.75
2022-11-05T16:23:59.505Z,98641.56
2022-11-05T16:29:39.426Z,98652.34
2022-11-05T16:32:30.654Z,98651.34
2022-11-05T16:35:06.218Z,98657.63
2022-11-05T16:37:46.346Z,98644.91
2022-11-05T16:40:24.931Z,98652.53
2022-11-05T16:42:54.344Z,98658.03
2022-11-05T16:45:25.734Z,98655.69
2022-11-05T16:47:53.635Z,98655.31
2022-11-05T16:50:26.332Z,98663.53
2022-11-05T16:52:54.383Z,98654.91
2022-11-05T16:55:22.178Z,98656.69
2022-11-05T16:57:55.309Z,98654.72
2022-11-05T17:00:24.731Z,98660.00
2022-11-05T17:02:53.354Z,98663.53
2022-11-05T17:05:31.237Z,98660.00
2022-11-05T17:08:00.758Z,98669.19
2022-11-05T17:10:28.650Z,98670.19
2022-11-05T17:12:56.995Z,98674.91
2022-11-05T17:15:35.833Z,98667.44
2022-11-05T17:18:06.086Z,98664.31
2022-11-05T17:20:44.379Z,98671.94
2022-11-05T17:23:16.413Z,98678.41
2022-11-05T17:25:52.478Z,98685.09
2022-11-05T17:28:21.743Z,98687.44
2022-11-05T17:30:52.973Z,98686.28
2022-11-05T17:33:23.398Z,98680.63
2022-11-05T17:35:52.620Z,98690.22
2022-11-05T17:38:22.283Z,98691.78
2022-11-05T17:40:50.792Z,98692.41
2022-11-05T17:43:20.275Z,98695.94
2022-11-05T17:45:52.113Z,98700.88
2022-11-05T17:48:21.412Z,98702.59
2022-11-05T17:50:51.023Z,98707.53
2022-11-05T17:53:20.014Z,98711.06
2022-11-05T17:55:48.552Z,98708.50
2022-11-05T17:58:16.520Z,98701.81
2022-11-05T18:00:45.992Z,98707.69
2022-11-05T18:03:14.913Z,98713.78
2022-11-05T18:05:43.514Z,98709.84
2022-11-05T18:08:12.680Z,98703.75
2022-11-05T18:10:41.890Z,98712.78
2022-11-05T18:13:11.306Z,98712.78
2022-11-05T18:15:41.556Z,98711.03
2022-11-05T18:18:09.778Z,98710.25
2022-11-05T18:20:39.141Z,98716.16
2022-11-05T18:23:07.166Z,98707.53
2022-11-05T18:25:35.095Z,98707.50
2022-11-05T18:28:03.519Z,98708.06
2022-11-05T18:30:31.355Z,98702.00
2022-11-05T18:32:59.119Z,98707.88
2022-11-05T18:35:27.000Z,98705.91
2022-11-05T18:37:54.784Z,98719.22
2022-11-05T18:40:22.971Z,98715.34
